createdAt,value
2018-09-19T00:01:15.657Z,20.58
2018-09-19T00:07:20.268Z,20.31
2018-09-19T00:13:24.971Z,20.37
2018-09-19T00:19:29.603Z,20.46
2018-09-19T00:25:34.260Z,20.38
2018-09-19T00:31:38.808Z,20.36
2018-09-19T00:37:43.375Z,20.19
2018-09-19T00:43:47.987Z,20.08
2018-09-19T00:49:53.598Z,19.73
2018-09-19T00:55:58.239Z,19.65
2018-09-19T01:02:02.831Z,19.62
2018-09-19T01:08:07.434Z,19.58
2018-09-19T01:14:12.017Z,19.51
2018-09-19T01:20:16.888Z,19.59
2018-09-19T01:26:21.512Z,19.47
2018-09-19T01:32:26.453Z,19.35
2018-09-19T01:38:31.887Z,19.13
2018-09-19T01:44:36.472Z,18.93
2018-09-19T01:50:41.355Z,18.84
2018-09-19T01:56:45.963Z,18.96
2018-09-19T02:02:50.830Z,18.78
2018-09-19T02:08:55.424Z,18.64
2018-09-19T02:15:00.007Z,18.33
2018-09-19T02:21:04.633Z,18.57
2018-09-19T02:27:09.215Z,18.40
2018-09-19T02:33:13.790Z,18.18
2018-09-19T02:39:18.395Z,18.06
2018-09-19T02:45:23.023Z,18.05
2018-09-19T02:51:28.009Z,18.03
2018-09-19T02:57:32.639Z,18.12
2018-09-19T03:03:37.205Z,18.18
2018-09-19T03:09:41.762Z,17.97
2018-09-19T03:15:46.330Z,17.67
2018-09-19T03:21:50.930Z,17.65
2018-09-19T03:27:55.491Z,17.52
2018-09-19T03:34:00.498Z,17.42
2018-09-19T03:40:05.144Z,17.31
2018-09-19T03:46:09.710Z,17.35
2018-09-19T03:52:14.300Z,17.08
2018-09-19T03:58:18.940Z,17.05
2018-09-19T04:04:23.514Z,17.05
2018-09-19T04:10:28.087Z,17.14
2018-09-19T04:16:32.635Z,17.02
2018-09-19T04:22:37.277Z,16.95
2018-09-19T04:28:42.147Z,16.88
2018-09-19T04:34:46.762Z,16.92
2018-09-19T04:40:51.379Z,16.83
2018-09-19T04:46:55.962Z,16.67
2018-09-19T04:53:00.563Z,16.45
2018-09-19T04:59:05.246Z,16.37
2018-09-19T05:05:09.876Z,16.14
2018-09-19T05:11:14.465Z,15.94
2018-09-19T05:17:19.059Z,16.10
2018-09-19T05:23:23.643Z,16.13
2018-09-19T05:29:28.189Z,16.40
2018-09-19T05:35:32.804Z,16.31
2018-09-19T05:41:37.440Z,16.36
2018-09-19T05:47:42.060Z,16.35
2018-09-19T05:53:46.654Z,16.36
2018-09-19T05:59:51.375Z,16.27
2018-09-19T06:05:55.992Z,16.31
2018-09-19T06:12:00.563Z,16.44
2018-09-19T06:18:05.178Z,16.83
2018-09-19T06:24:09.767Z,16.92
2018-09-19T06:30:14.353Z,16.90
2018-09-19T06:36:19.013Z,17.15
2018-09-19T06:42:23.615Z,17.30
2018-09-19T06:48:28.176Z,18.27
2018-09-19T06:54:32.764Z,21.27
2018-09-19T07:00:37.382Z,23.88
2018-09-19T07:06:42.312Z,25.73
2018-09-19T07:12:47.361Z,27.99
2018-09-19T07:18:52.034Z,28.28
2018-09-19T07:24:56.957Z,26.34
2018-09-19T07:31:01.636Z,24.70
2018-09-19T07:37:06.245Z,23.79
2018-09-19T07:43:10.857Z,23.66
2018-09-19T07:49:15.475Z,23.42
2018-09-19T07:55:20.098Z,23.41
2018-09-19T08:01:24.671Z,23.63
2018-09-19T08:07:29.266Z,23.77
2018-09-19T08:13:33.866Z,24.36
2018-09-19T08:19:38.598Z,25.02
2018-09-19T08:25:43.202Z,25.72
2018-09-19T08:31:47.750Z,26.38
2018-09-19T08:37:52.347Z,27.70
2018-09-19T08:43:56.944Z,28.60
2018-09-19T08:50:01.520Z,29.78
2018-09-19T08:56:06.151Z,31.13
2018-09-19T09:02:10.765Z,32.19
2018-09-19T09:08:15.391Z,33.70
2018-09-19T09:14:20.011Z,33.87
2018-09-19T09:20:24.583Z,35.66
2018-09-19T09:26:29.170Z,36.74
2018-09-19T09:32:33.724Z,36.45
2018-09-19T09:38:38.329Z,37.22
2018-09-19T09:44:42.958Z,37.27
2018-09-19T09:50:47.554Z,38.40
2018-09-19T09:56:52.508Z,38.38
2018-09-19T10:02:57.084Z,38.54
2018-09-19T10:09:01.677Z,37.73
2018-09-19T10:15:06.701Z,37.65
2018-09-19T10:21:11.347Z,37.39
2018-09-19T10:27:15.965Z,38.58
2018-09-19T10:33:20.564Z,39.38
2018-09-19T10:39:25.155Z,38.90
2018-09-19T10:45:29.792Z,39.38
2018-09-19T10:51:34.365Z,39.35
2018-09-19T10:57:38.983Z,38.71
2018-09-19T11:03:43.565Z,38.54
2018-09-19T11:09:48.187Z,38.53
2018-09-19T11:15:52.764Z,37.26
2018-09-19T11:21:57.378Z,36.05
2018-09-19T11:28:01.981Z,37.53
2018-09-19T11:34:06.588Z,38.50
2018-09-19T11:40:11.193Z,38.54
2018-09-19T11:46:15.772Z,38.25
2018-09-19T11:52:20.349Z,35.48
2018-09-19T11:58:24.912Z,34.62
2018-09-19T12:04:29.481Z,33.66
2018-09-19T12:10:34.065Z,33.97
2018-09-19T12:16:39.085Z,33.44
2018-09-19T12:22:43.648Z,32.74
2018-09-19T12:28:48.235Z,33.08
2018-09-19T12:34:52.826Z,32.83
2018-09-19T12:40:57.449Z,32.73
2018-09-19T12:47:02.052Z,32.63
2018-09-19T12:53:06.621Z,32.18
2018-09-19T12:59:11.238Z,32.93
2018-09-19T13:05:15.846Z,33.44
2018-09-19T13:11:20.809Z,33.36
2018-09-19T13:17:25.341Z,34.66
2018-09-19T13:23:29.896Z,33.92
2018-09-19T13:29:34.487Z,33.68
2018-09-19T13:35:39.046Z,35.28
2018-09-19T13:41:43.636Z,35.44
2018-09-19T13:47:48.492Z,34.11
2018-09-19T13:53:53.258Z,37.01
2018-09-19T13:59:58.418Z,36.42
2018-09-19T14:06:03.006Z,37.18
2018-09-19T14:12:07.696Z,36.32
2018-09-19T14:18:12.545Z,34.82
2018-09-19T14:24:17.229Z,32.98
2018-09-19T14:30:21.854Z,32.79
2018-09-19T14:36:26.439Z,33.39
2018-09-19T14:42:31.017Z,32.62
2018-09-19T14:48:35.624Z,34.32
2018-09-19T14:54:40.205Z,34.00
2018-09-19T15:00:45.100Z,34.34
2018-09-19T15:06:49.734Z,35.86
2018-09-19T15:12:54.669Z,34.42
2018-09-19T15:18:59.279Z,33.62
2018-09-19T15:25:03.888Z,33.71
2018-09-19T15:31:08.853Z,34.27
2018-09-19T15:37:13.422Z,33.50
2018-09-19T15:43:17.953Z,33.85
2018-09-19T15:49:22.537Z,34.30
2018-09-19T15:55:27.162Z,34.33
2018-09-19T16:01:32.104Z,34.27
2018-09-19T16:07:36.750Z,34.90
2018-09-19T16:13:41.354Z,34.27
2018-09-19T16:19:45.991Z,34.92
2018-09-19T16:25:50.584Z,35.55
2018-09-19T16:31:55.185Z,34.11
2018-09-19T16:37:59.816Z,33.40
2018-09-19T16:44:04.547Z,33.15
2018-09-19T16:50:09.230Z,32.30
2018-09-19T16:56:13.843Z,31.48
2018-09-19T17:02:18.421Z,31.66
2018-09-19T17:08:22.974Z,30.32
2018-09-19T17:14:27.585Z,29.02
2018-09-19T17:20:32.154Z,28.55
2018-09-19T17:26:36.827Z,27.68
2018-09-19T17:32:41.455Z,27.36
2018-09-19T17:38:46.111Z,26.80
2018-09-19T17:44:50.753Z,26.65
2018-09-19T17:50:55.665Z,26.19
2018-09-19T17:57:00.338Z,25.74
2018-09-19T18:03:04.934Z,25.50
2018-09-19T18:09:09.557Z,25.23
2018-09-19T18:15:14.089Z,25.01
2018-09-19T18:21:18.709Z,24.73
2018-09-19T18:27:23.288Z,24.69
2018-09-19T18:33:27.841Z,24.26
2018-09-19T18:39:32.449Z,24.25
2018-09-19T18:45:37.049Z,24.11
2018-09-19T18:51:41.666Z,24.05
2018-09-19T18:57:46.242Z,23.74
2018-09-19T19:03:50.848Z,23.74
2018-09-19T19:09:55.440Z,23.71
2018-09-19T19:16:00.017Z,23.62
2018-09-19T19:22:04.605Z,23.60
2018-09-19T19:28:09.238Z,23.43
2018-09-19T19:34:13.796Z,23.50
2018-09-19T19:40:18.388Z,23.32
2018-09-19T19:46:22.946Z,23.15
2018-09-19T19:52:27.546Z,23.00
2018-09-19T19:58:32.173Z,22.88
2018-09-19T20:04:36.853Z,22.95
2018-09-19T20:10:41.545Z,22.84
2018-09-19T20:16:46.185Z,23.00
2018-09-19T20:22:50.871Z,22.76
2018-09-19T20:28:55.479Z,22.92
2018-09-19T20:35:00.142Z,22.67
2018-09-19T20:41:04.835Z,22.67
2018-09-19T20:47:09.515Z,22.83
2018-09-19T20:53:14.247Z,22.69
2018-09-19T20:59:18.932Z,22.56
2018-09-19T21:05:23.622Z,22.52
2018-09-19T21:11:28.687Z,22.33
2018-09-19T21:17:33.351Z,22.07
2018-09-19T21:23:38.062Z,22.41
2018-09-19T21:29:42.774Z,22.11
2018-09-19T21:35:47.413Z,21.92
2018-09-19T21:41:52.005Z,21.71
2018-09-19T21:47:56.603Z,21.81
2018-09-19T21:54:01.196Z,21.34
2018-09-19T22:00:07.470Z,21.22
2018-09-19T22:06:12.080Z,21.22
2018-09-19T22:12:16.747Z,20.90
2018-09-19T22:18:21.329Z,20.78
2018-09-19T22:24:25.902Z,20.78
2018-09-19T22:30:30.437Z,20.97
2018-09-19T22:36:35.371Z,20.58
2018-09-19T22:42:39.944Z,20.51
2018-09-19T22:48:44.557Z,20.78
2018-09-19T22:54:49.176Z,20.70
2018-09-19T23:00:54.106Z,20.85
2018-09-19T23:06:58.766Z,21.05
2018-09-19T23:13:03.370Z,20.94
2018-09-19T23:19:07.917Z,21.01
2018-09-19T23:25:12.904Z,21.06
2018-09-19T23:31:17.492Z,20.78
2018-09-19T23:37:22.083Z,20.63
2018-09-19T23:43:26.699Z,20.72
2018-09-19T23:49:31.249Z,20.67
2018-09-19T23:55:35.826Z,20.71
